createdAt,value
2019-01-25T00:01:50.509Z,98.70
2019-01-25T00:04:20.360Z,118.07
2019-01-25T00:06:50.172Z,111.50
2019-01-25T00:09:20.097Z,101.03
2019-01-25T00:11:50.007Z,117.57
2019-01-25T00:14:20.014Z,112.27
2019-01-25T00:16:50.011Z,101.83
2019-01-25T00:19:19.796Z,104.63
2019-01-25T00:21:49.618Z,102.07
2019-01-25T00:24:19.552Z,104.30
2019-01-25T00:26:49.333Z,104.10
2019-01-25T00:29:19.148Z,92.37
2019-01-25T00:31:48.960Z,100.93
2019-01-25T00:34:18.708Z,96.33
2019-01-25T00:36:48.664Z,102.20
2019-01-25T00:39:18.436Z,85.77
2019-01-25T00:41:48.368Z,87.43
2019-01-25T00:44:19.355Z,102.37
2019-01-25T00:46:49.168Z,87.23
2019-01-25T00:49:19.116Z,79.70
2019-01-25T00:51:49.047Z,79.97
2019-01-25T00:54:18.805Z,90.77
2019-01-25T00:56:48.695Z,92.87
2019-01-25T00:59:18.513Z,80.50
2019-01-25T01:01:48.376Z,80.93
2019-01-25T01:04:18.133Z,81.97
2019-01-25T01:06:47.941Z,74.33
2019-01-25T01:09:17.879Z,79.57
2019-01-25T01:11:47.640Z,67.13
2019-01-25T01:14:17.728Z,79.60
2019-01-25T01:16:47.531Z,68.93
2019-01-25T01:19:17.329Z,64.07
2019-01-25T01:21:47.172Z,66.07
2019-01-25T01:24:16.925Z,68.73
2019-01-25T01:26:46.748Z,58.13
2019-01-25T01:29:16.657Z,64.20
2019-01-25T01:31:46.486Z,56.17
2019-01-25T01:34:16.455Z,52.23
2019-01-25T01:36:46.280Z,67.13
2019-01-25T01:39:16.282Z,56.50
2019-01-25T01:41:46.185Z,55.50
2019-01-25T01:44:16.088Z,65.23
2019-01-25T01:46:45.994Z,62.00
2019-01-25T01:49:15.825Z,57.83
2019-01-25T01:51:45.731Z,53.63
2019-01-25T01:54:15.470Z,62.17
2019-01-25T01:56:45.239Z,51.00
2019-01-25T01:59:15.052Z,69.50
2019-01-25T02:01:44.963Z,52.53
2019-01-25T02:04:14.699Z,55.97
2019-01-25T02:06:44.688Z,65.73
2019-01-25T02:09:14.601Z,61.17
2019-01-25T02:11:44.550Z,59.83
2019-01-25T02:14:14.384Z,53.47
2019-01-25T02:16:44.379Z,50.03
2019-01-25T02:19:14.298Z,57.00
2019-01-25T02:21:44.224Z,46.63
2019-01-25T02:24:14.191Z,54.90
2019-01-25T02:26:45.750Z,46.77
2019-01-25T02:29:15.968Z,49.33
2019-01-25T02:31:45.736Z,54.87
2019-01-25T02:34:15.544Z,47.57
2019-01-25T02:36:45.324Z,50.37
2019-01-25T02:39:15.204Z,55.43
2019-01-25T02:41:45.029Z,50.90
2019-01-25T02:44:14.840Z,61.03
2019-01-25T02:46:44.740Z,54.77
2019-01-25T02:49:14.685Z,67.47
2019-01-25T02:51:44.503Z,51.87
2019-01-25T02:54:14.381Z,57.63
2019-01-25T02:56:44.199Z,54.07
2019-01-25T02:59:13.980Z,51.20
2019-01-25T03:01:43.728Z,65.27
2019-01-25T03:04:13.547Z,53.27
2019-01-25T03:06:43.310Z,54.10
2019-01-25T03:09:13.191Z,50.23
2019-01-25T03:11:43.109Z,61.77
2019-01-25T03:14:12.923Z,54.67
2019-01-25T03:16:42.789Z,75.83
2019-01-25T03:19:12.643Z,64.50
2019-01-25T03:21:42.525Z,52.23
2019-01-25T03:24:12.347Z,61.13
2019-01-25T03:26:42.185Z,78.33
2019-01-25T03:29:11.928Z,64.87
2019-01-25T03:31:41.670Z,67.47
2019-01-25T03:34:11.432Z,58.37
2019-01-25T03:36:41.252Z,49.07
2019-01-25T03:39:11.227Z,67.60
2019-01-25T03:41:40.981Z,71.40
2019-01-25T03:44:10.960Z,76.57
2019-01-25T03:46:40.802Z,54.13
2019-01-25T03:49:12.281Z,58.30
2019-01-25T03:51:43.376Z,58.70
2019-01-25T03:54:13.376Z,58.97
2019-01-25T03:56:43.357Z,67.07
2019-01-25T03:59:13.259Z,57.47
2019-01-25T04:01:43.112Z,60.13
2019-01-25T04:04:12.868Z,69.97
2019-01-25T04:06:42.801Z,59.43
2019-01-25T04:09:13.696Z,80.43
2019-01-25T04:11:43.506Z,74.10
2019-01-25T04:14:14.433Z,66.73
2019-01-25T04:16:44.244Z,70.87
2019-01-25T04:19:14.128Z,68.10
2019-01-25T04:21:43.899Z,68.60
2019-01-25T04:24:13.728Z,60.87
2019-01-25T04:26:43.551Z,70.20
2019-01-25T04:29:13.370Z,63.37
2019-01-25T04:31:43.201Z,64.93
2019-01-25T04:34:13.033Z,70.50
2019-01-25T04:36:42.914Z,60.60
2019-01-25T04:39:12.825Z,69.50
2019-01-25T04:41:42.661Z,63.87
2019-01-25T04:44:12.479Z,65.40
2019-01-25T04:46:42.228Z,62.47
2019-01-25T04:49:11.955Z,57.60
2019-01-25T04:51:41.801Z,61.70
2019-01-25T04:54:11.760Z,72.47
2019-01-25T04:56:41.558Z,65.03
2019-01-25T04:59:11.371Z,62.20
2019-01-25T05:01:41.325Z,65.33
2019-01-25T05:04:11.095Z,72.60
2019-01-25T05:06:40.806Z,61.03
2019-01-25T05:09:10.939Z,62.07
2019-01-25T05:11:40.648Z,66.63
2019-01-25T05:14:10.595Z,67.83
2019-01-25T05:16:40.442Z,54.73
2019-01-25T05:19:10.189Z,54.33
2019-01-25T05:21:39.895Z,57.03
2019-01-25T05:24:11.662Z,51.17
2019-01-25T05:26:41.360Z,49.50
2019-01-25T05:29:11.173Z,55.27
2019-01-25T05:31:40.869Z,60.97
2019-01-25T05:34:11.621Z,57.83
2019-01-25T05:36:41.315Z,65.63
2019-01-25T05:39:11.006Z,51.03
2019-01-25T05:41:40.711Z,67.50
2019-01-25T05:44:10.566Z,58.70
2019-01-25T05:46:40.262Z,63.67
2019-01-25T05:49:09.970Z,66.53
2019-01-25T05:51:39.835Z,58.20
2019-01-25T05:54:09.609Z,67.90
2019-01-25T05:56:43.311Z,56.93
2019-01-25T05:59:13.151Z,68.10
2019-01-25T06:01:46.506Z,66.90
2019-01-25T06:04:16.578Z,55.90
2019-01-25T06:06:46.300Z,58.13
2019-01-25T06:09:20.909Z,71.17
2019-01-25T06:11:50.702Z,54.20
2019-01-25T06:14:20.494Z,62.20
2019-01-25T06:16:50.203Z,60.00
2019-01-25T06:19:20.003Z,66.53
2019-01-25T06:21:52.906Z,71.10
2019-01-25T06:24:22.662Z,77.97
2019-01-25T06:26:52.537Z,59.37
2019-01-25T06:29:22.284Z,78.17
2019-01-25T06:31:52.097Z,63.10
2019-01-25T06:34:21.770Z,72.73
2019-01-25T06:36:51.474Z,70.60
2019-01-25T06:39:22.253Z,71.03
2019-01-25T06:41:52.035Z,78.07
2019-01-25T06:44:21.735Z,68.13
2019-01-25T06:46:51.441Z,73.10
2019-01-25T06:49:21.197Z,76.33
2019-01-25T06:51:51.006Z,86.33
2019-01-25T06:54:20.726Z,77.00
2019-01-25T06:56:50.435Z,69.80
2019-01-25T06:59:23.553Z,80.63
2019-01-25T07:02:12.343Z,74.73
2019-01-25T07:04:42.122Z,75.67
2019-01-25T07:07:28.505Z,93.33
2019-01-25T07:09:58.322Z,84.33
2019-01-25T07:12:28.039Z,81.10
2019-01-25T07:14:57.741Z,82.80
2019-01-25T07:17:27.510Z,80.40
2019-01-25T07:19:57.216Z,69.57
2019-01-25T07:22:26.902Z,85.43
2019-01-25T07:24:57.247Z,105.70
2019-01-25T07:27:27.334Z,83.30
2019-01-25T07:29:57.144Z,78.47
2019-01-25T07:32:26.985Z,79.27
2019-01-25T07:34:56.812Z,74.40
2019-01-25T07:37:26.652Z,72.00
2019-01-25T07:39:56.520Z,74.90
2019-01-25T07:42:26.290Z,95.83
2019-01-25T07:44:56.175Z,88.23
2019-01-25T07:47:26.022Z,81.90
2019-01-25T07:49:55.939Z,101.47
2019-01-25T07:52:25.747Z,83.70
2019-01-25T07:54:55.605Z,73.67
2019-01-25T07:57:25.532Z,98.80
2019-01-25T07:59:55.281Z,86.50
2019-01-25T08:02:25.103Z,82.70
2019-01-25T08:04:55.092Z,92.00
2019-01-25T08:07:25.585Z,96.93
2019-01-25T08:09:55.461Z,87.03
2019-01-25T08:12:25.354Z,93.23
2019-01-25T08:14:55.061Z,95.90
2019-01-25T08:17:24.767Z,100.93
2019-01-25T08:19:54.533Z,104.20
2019-01-25T08:22:24.313Z,102.73
2019-01-25T08:24:54.046Z,99.77
2019-01-25T08:27:23.884Z,104.77
2019-01-25T08:29:53.717Z,107.10
2019-01-25T08:32:24.764Z,104.47
2019-01-25T08:34:54.603Z,106.77
2019-01-25T08:37:24.398Z,92.70
2019-01-25T08:39:54.243Z,83.37
2019-01-25T08:42:24.066Z,85.43
2019-01-25T08:44:53.825Z,92.50
2019-01-25T08:47:23.605Z,120.20
2019-01-25T08:49:57.757Z,91.83
2019-01-25T08:52:24.773Z,99.17
2019-01-25T08:54:54.695Z,87.57
2019-01-25T08:57:24.440Z,115.63
2019-01-25T08:59:54.370Z,95.93
2019-01-25T09:02:24.183Z,106.10
2019-01-25T09:04:53.895Z,119.77
2019-01-25T09:07:23.595Z,118.60
2019-01-25T09:09:53.334Z,98.87
2019-01-25T09:12:23.638Z,111.53
2019-01-25T09:14:53.489Z,102.80
2019-01-25T09:17:23.264Z,117.97
2019-01-25T09:19:52.946Z,107.47
2019-01-25T09:22:22.642Z,110.87
2019-01-25T09:24:52.346Z,126.00
2019-01-25T09:27:23.914Z,105.63
2019-01-25T09:29:53.730Z,118.57
2019-01-25T09:32:23.590Z,133.70
2019-01-25T09:34:53.370Z,128.30
2019-01-25T09:37:23.067Z,125.63
2019-01-25T09:39:52.858Z,137.97
2019-01-25T09:42:22.557Z,95.13
2019-01-25T09:44:52.336Z,93.73
2019-01-25T09:47:22.082Z,98.67
2019-01-25T09:49:51.798Z,94.57
2019-01-25T09:52:21.491Z,100.67
2019-01-25T09:54:51.294Z,106.47
2019-01-25T09:57:21.959Z,93.63
2019-01-25T09:59:51.831Z,111.77
2019-01-25T10:02:21.542Z,108.20
2019-01-25T10:04:51.316Z,116.97
2019-01-25T10:07:21.015Z,101.03
2019-01-25T10:09:50.732Z,102.83
2019-01-25T10:12:20.486Z,117.13
2019-01-25T10:14:50.252Z,108.37
2019-01-25T10:17:20.015Z,113.83
2019-01-25T10:19:49.698Z,101.87
2019-01-25T10:22:19.409Z,118.30
2019-01-25T10:24:50.163Z,103.90
2019-01-25T10:27:19.844Z,86.97
2019-01-25T10:29:49.558Z,105.87
2019-01-25T10:32:19.561Z,142.90
2019-01-25T10:34:49.398Z,105.27
2019-01-25T10:37:19.106Z,103.30
2019-01-25T10:39:48.877Z,103.70
2019-01-25T10:42:21.306Z,115.27
2019-01-25T10:44:50.990Z,97.37
2019-01-25T10:47:21.673Z,92.67
2019-01-25T10:49:51.421Z,93.13
2019-01-25T10:52:21.342Z,111.40
2019-01-25T10:54:51.105Z,101.83
2019-01-25T10:57:20.989Z,106.13
2019-01-25T10:59:50.685Z,91.80
2019-01-25T11:02:20.481Z,89.70
2019-01-25T11:04:50.247Z,95.17
2019-01-25T11:07:20.033Z,92.97
2019-01-25T11:09:49.744Z,83.67
2019-01-25T11:12:19.443Z,96.63
2019-01-25T11:14:49.249Z,90.73
2019-01-25T11:17:18.949Z,105.60
2019-01-25T11:19:48.651Z,99.57
2019-01-25T11:22:18.378Z,102.97
2019-01-25T11:24:49.582Z,92.97
2019-01-25T11:27:19.306Z,93.47
2019-01-25T11:29:48.993Z,89.67
2019-01-25T11:32:18.706Z,95.13
2019-01-25T11:34:48.719Z,97.47
2019-01-25T11:37:18.424Z,83.70
2019-01-25T11:39:49.374Z,93.43
2019-01-25T11:42:19.314Z,66.43
2019-01-25T11:44:49.018Z,89.43
2019-01-25T11:47:18.799Z,86.47
2019-01-25T11:49:48.500Z,96.80
2019-01-25T11:52:18.254Z,80.73
2019-01-25T11:54:48.031Z,88.73
2019-01-25T11:57:17.714Z,85.70
2019-01-25T11:59:47.493Z,78.60
2019-01-25T12:02:20.997Z,83.80
2019-01-25T12:04:48.752Z,78.10
2019-01-25T12:07:18.459Z,85.60
2019-01-25T12:09:48.245Z,78.10
2019-01-25T12:12:19.406Z,73.63
2019-01-25T12:14:49.232Z,84.57
2019-01-25T12:17:18.952Z,87.40
2019-01-25T12:19:48.656Z,78.47
2019-01-25T12:22:18.440Z,83.53
2019-01-25T12:24:48.214Z,79.93
2019-01-25T12:27:17.932Z,69.20
2019-01-25T12:29:47.650Z,75.57
2019-01-25T12:32:17.366Z,83.87
2019-01-25T12:34:47.152Z,74.47
2019-01-25T12:37:16.847Z,103.43
2019-01-25T12:39:46.539Z,82.60
2019-01-25T12:42:16.302Z,79.40
2019-01-25T12:44:45.965Z,89.07
2019-01-25T12:47:15.759Z,83.60
2019-01-25T12:49:45.535Z,107.50
2019-01-25T12:52:15.295Z,93.80
2019-01-25T12:54:45.114Z,68.90
2019-01-25T12:57:14.899Z,79.53
2019-01-25T12:59:44.599Z,92.77
2019-01-25T13:02:14.379Z,99.57
2019-01-25T13:04:44.137Z,60.77
2019-01-25T13:07:14.054Z,86.37
2019-01-25T13:09:43.902Z,73.93
2019-01-25T13:12:13.784Z,64.67
2019-01-25T13:14:43.546Z,52.60
2019-01-25T13:17:13.330Z,71.03
2019-01-25T13:19:43.106Z,71.37
2019-01-25T13:22:12.823Z,51.70
2019-01-25T13:24:44.263Z,56.90
2019-01-25T13:27:14.040Z,56.37
2019-01-25T13:29:43.819Z,58.97
2019-01-25T13:32:14.592Z,63.37
2019-01-25T13:34:44.599Z,61.30
2019-01-25T13:37:14.374Z,58.77
2019-01-25T13:39:44.219Z,57.80
2019-01-25T13:42:14.175Z,60.50
2019-01-25T13:44:44.237Z,66.23
2019-01-25T13:47:14.105Z,60.97
2019-01-25T13:49:43.812Z,65.27
2019-01-25T13:52:13.584Z,56.87
2019-01-25T13:54:43.421Z,72.20
2019-01-25T13:57:14.089Z,72.17
2019-01-25T13:59:43.850Z,82.50
2019-01-25T14:02:13.553Z,97.57
2019-01-25T14:04:43.274Z,68.30
2019-01-25T14:07:12.983Z,78.27
2019-01-25T14:09:42.726Z,83.70
2019-01-25T14:12:12.495Z,67.50
2019-01-25T14:14:42.331Z,90.33
2019-01-25T14:17:12.236Z,71.37
2019-01-25T14:19:42.093Z,84.20
2019-01-25T14:22:11.850Z,98.93
2019-01-25T14:24:41.590Z,95.63
2019-01-25T14:27:11.362Z,94.83
2019-01-25T14:29:41.055Z,109.97
2019-01-25T14:32:10.755Z,91.53
2019-01-25T14:34:40.465Z,108.13
2019-01-25T14:37:10.226Z,102.17
2019-01-25T14:39:39.930Z,107.43
2019-01-25T14:42:09.685Z,118.73
2019-01-25T14:44:39.454Z,113.00
2019-01-25T14:47:09.218Z,91.27
2019-01-25T14:49:38.926Z,112.00
2019-01-25T14:52:08.599Z,102.80
2019-01-25T14:54:38.314Z,92.10
2019-01-25T14:57:08.098Z,113.70
2019-01-25T14:59:37.807Z,113.97
2019-01-25T15:02:07.567Z,117.37
2019-01-25T15:04:37.274Z,111.40
2019-01-25T15:07:06.966Z,96.07
2019-01-25T15:09:38.079Z,102.93
2019-01-25T15:12:08.018Z,112.57
2019-01-25T15:14:37.734Z,117.40
2019-01-25T15:17:07.539Z,118.27
2019-01-25T15:19:37.365Z,101.60
2019-01-25T15:22:07.242Z,105.73
2019-01-25T15:24:37.074Z,108.57
2019-01-25T15:27:06.840Z,103.43
2019-01-25T15:29:36.668Z,105.07
2019-01-25T15:32:06.554Z,89.43
2019-01-25T15:34:36.297Z,99.57
2019-01-25T15:37:06.227Z,98.87
2019-01-25T15:39:35.937Z,102.00
2019-01-25T15:42:05.791Z,112.33
2019-01-25T15:44:36.324Z,87.93
2019-01-25T15:47:06.141Z,94.83
2019-01-25T15:49:35.954Z,102.10
2019-01-25T15:52:05.811Z,108.37
2019-01-25T15:54:35.577Z,120.47
2019-01-25T15:57:05.350Z,104.87
2019-01-25T15:59:35.071Z,105.07
2019-01-25T16:02:04.998Z,103.73
2019-01-25T16:04:35.243Z,98.17
2019-01-25T16:07:06.226Z,101.40
2019-01-25T16:09:35.982Z,83.77
2019-01-25T16:12:05.873Z,88.73
2019-01-25T16:14:35.598Z,88.67
2019-01-25T16:17:05.398Z,99.67
2019-01-25T16:19:35.078Z,85.43
2019-01-25T16:22:06.019Z,93.20
2019-01-25T16:24:35.715Z,80.10
2019-01-25T16:27:05.851Z,76.93
2019-01-25T16:29:35.521Z,75.27
2019-01-25T16:32:05.382Z,76.13
2019-01-25T16:34:35.087Z,82.73
2019-01-25T16:37:04.930Z,89.17
2019-01-25T16:39:34.663Z,73.57
2019-01-25T16:42:04.474Z,79.60
2019-01-25T16:44:34.282Z,77.30
2019-01-25T16:47:04.042Z,72.07
2019-01-25T16:49:33.726Z,70.60
2019-01-25T16:52:03.506Z,70.43
2019-01-25T16:54:33.222Z,86.30
2019-01-25T16:57:02.926Z,72.87
2019-01-25T16:59:32.723Z,75.90
2019-01-25T17:02:03.344Z,66.63
2019-01-25T17:04:33.026Z,69.77
2019-01-25T17:07:02.739Z,57.47
2019-01-25T17:09:32.519Z,54.37
2019-01-25T17:12:02.297Z,70.13
2019-01-25T17:14:33.555Z,52.47
2019-01-25T17:17:03.759Z,51.57
2019-01-25T17:19:33.581Z,42.70
2019-01-25T17:22:03.434Z,38.67
2019-01-25T17:24:33.213Z,50.27
2019-01-25T17:27:03.094Z,41.90
2019-01-25T17:29:32.784Z,41.43
2019-01-25T17:32:02.566Z,43.17
2019-01-25T17:34:32.258Z,43.10
2019-01-25T17:37:03.049Z,41.70
2019-01-25T17:39:32.730Z,38.07
2019-01-25T17:42:02.538Z,32.37
2019-01-25T17:44:32.238Z,39.20
2019-01-25T17:47:02.079Z,39.30
2019-01-25T17:49:31.778Z,41.37
2019-01-25T17:52:01.542Z,26.63
2019-01-25T17:54:31.227Z,37.33
2019-01-25T17:57:00.998Z,31.73
2019-01-25T17:59:30.689Z,34.77
2019-01-25T18:02:00.394Z,32.33
2019-01-25T18:04:30.122Z,39.03
2019-01-25T18:06:59.926Z,38.67
2019-01-25T18:09:29.629Z,38.37
2019-01-25T18:11:59.410Z,29.63
2019-01-25T18:14:29.310Z,33.77
2019-01-25T18:16:59.003Z,54.90
2019-01-25T18:19:28.858Z,48.43
2019-01-25T18:21:58.674Z,50.37
2019-01-25T18:24:28.354Z,71.03
2019-01-25T18:26:59.106Z,54.03
2019-01-25T18:29:49.820Z,43.53
2019-01-25T18:32:19.609Z,42.17
2019-01-25T18:34:49.407Z,50.53
2019-01-25T18:37:19.125Z,54.40
2019-01-25T18:39:48.846Z,40.77
2019-01-25T18:42:19.339Z,36.50
2019-01-25T18:44:56.366Z,41.03
2019-01-25T18:47:20.566Z,57.20
2019-01-25T18:49:50.245Z,47.97
2019-01-25T18:52:19.995Z,53.00
2019-01-25T18:54:49.670Z,56.00
2019-01-25T18:57:19.494Z,54.57
2019-01-25T18:59:49.208Z,52.53
2019-01-25T19:02:20.341Z,54.87
2019-01-25T19:04:50.118Z,68.30
2019-01-25T19:07:19.862Z,46.80
2019-01-25T19:09:49.638Z,47.23
2019-01-25T19:12:19.333Z,57.27
2019-01-25T19:14:49.006Z,43.67
2019-01-25T19:17:18.762Z,49.70
2019-01-25T19:19:48.448Z,53.70
2019-01-25T19:22:18.214Z,38.50
2019-01-25T19:24:47.906Z,42.20
2019-01-25T19:27:17.598Z,42.07
2019-01-25T19:29:47.275Z,43.20
2019-01-25T19:32:17.048Z,25.00
2019-01-25T19:34:46.726Z,36.07
2019-01-25T19:37:16.518Z,40.00
2019-01-25T19:39:46.386Z,33.17
2019-01-25T19:42:16.135Z,29.70
2019-01-25T19:44:45.953Z,28.20
2019-01-25T19:47:15.767Z,31.80
2019-01-25T19:49:45.554Z,44.23
2019-01-25T19:52:15.410Z,26.47
2019-01-25T19:54:45.182Z,27.40
2019-01-25T19:57:14.965Z,27.57
2019-01-25T19:59:44.822Z,27.10
2019-01-25T20:02:14.774Z,26.90
2019-01-25T20:04:44.597Z,30.93
2019-01-25T20:07:14.282Z,37.00
2019-01-25T20:09:43.990Z,34.47
2019-01-25T20:12:13.758Z,18.47
2019-01-25T20:14:43.638Z,33.47
2019-01-25T20:17:13.378Z,26.23
2019-01-25T20:19:43.268Z,38.90
2019-01-25T20:22:13.114Z,19.83
2019-01-25T20:24:42.780Z,34.57
2019-01-25T20:27:12.628Z,20.77
2019-01-25T20:29:42.479Z,28.63
2019-01-25T20:32:12.286Z,27.70
2019-01-25T20:34:42.065Z,22.37
2019-01-25T20:37:11.730Z,29.27
2019-01-25T20:39:41.525Z,17.37
2019-01-25T20:42:11.208Z,28.27
2019-01-25T20:44:40.978Z,30.43
2019-01-25T20:47:10.682Z,25.40
2019-01-25T20:49:40.471Z,22.50
2019-01-25T20:52:10.305Z,28.10
2019-01-25T20:54:40.021Z,16.60
2019-01-25T20:57:10.782Z,31.07
2019-01-25T20:59:40.602Z,18.13
2019-01-25T21:02:10.513Z,35.20
2019-01-25T21:04:40.289Z,20.37
2019-01-25T21:07:10.046Z,22.00
2019-01-25T21:09:39.813Z,32.73
2019-01-25T21:12:09.588Z,18.97
2019-01-25T21:14:39.469Z,22.13
2019-01-25T21:17:09.358Z,31.73
2019-01-25T21:19:39.255Z,16.33
2019-01-25T21:22:09.102Z,24.97
2019-01-25T21:24:38.907Z,16.57
2019-01-25T21:27:09.632Z,23.13
2019-01-25T21:29:39.474Z,19.27
2019-01-25T21:32:09.259Z,24.80
2019-01-25T21:34:38.970Z,22.87
2019-01-25T21:37:09.713Z,35.73
2019-01-25T21:39:39.442Z,25.00
2019-01-25T21:42:09.302Z,20.93
2019-01-25T21:44:39.019Z,26.27
2019-01-25T21:47:08.777Z,25.60
2019-01-25T21:49:38.479Z,14.93
2019-01-25T21:52:08.406Z,15.50
2019-01-25T21:54:38.179Z,31.70
2019-01-25T21:57:08.021Z,18.47
2019-01-25T21:59:37.915Z,26.17
2019-01-25T22:02:08.038Z,26.93
2019-01-25T22:04:37.862Z,22.37
2019-01-25T22:07:07.714Z,22.70
2019-01-25T22:09:37.538Z,30.70
2019-01-25T22:12:07.500Z,37.87
2019-01-25T22:14:37.219Z,17.93
2019-01-25T22:17:06.962Z,19.60
2019-01-25T22:19:36.880Z,15.13
2019-01-25T22:22:06.915Z,26.30
2019-01-25T22:24:36.714Z,18.33
2019-01-25T22:27:06.481Z,14.27
2019-01-25T22:29:36.184Z,20.90
2019-01-25T22:32:06.022Z,21.40
2019-01-25T22:34:35.694Z,23.63
2019-01-25T22:37:05.483Z,19.17
2019-01-25T22:39:35.274Z,24.83
2019-01-25T22:42:05.105Z,23.33
2019-01-25T22:44:34.889Z,25.10
2019-01-25T22:47:06.122Z,17.60
2019-01-25T22:49:36.870Z,15.40
2019-01-25T22:52:06.698Z,23.67
2019-01-25T22:54:36.385Z,27.07
2019-01-25T22:57:06.163Z,19.20
2019-01-25T22:59:35.861Z,17.27
2019-01-25T23:02:05.902Z,17.83
2019-01-25T23:04:45.946Z,13.57
2019-01-25T23:07:22.395Z,26.13
2019-01-25T23:09:54.559Z,23.03
2019-01-25T23:12:24.314Z,24.13
2019-01-25T23:14:54.054Z,30.97
2019-01-25T23:17:23.827Z,24.13
2019-01-25T23:19:54.654Z,21.77
2019-01-25T23:22:24.425Z,28.20
2019-01-25T23:24:54.198Z,26.30
2019-01-25T23:27:24.026Z,31.43
2019-01-25T23:29:53.813Z,21.10
2019-01-25T23:32:23.546Z,37.77
2019-01-25T23:34:53.234Z,23.23
2019-01-25T23:37:22.990Z,32.80
2019-01-25T23:39:52.733Z,23.47
2019-01-25T23:42:22.419Z,23.47
2019-01-25T23:44:52.344Z,21.90
2019-01-25T23:47:22.026Z,23.63
2019-01-25T23:49:51.748Z,27.03
2019-01-25T23:52:21.538Z,22.37
2019-01-25T23:54:51.219Z,25.37
2019-01-25T23:57:20.910Z,20.07
2019-01-25T23:59:50.594Z,22.33
